sensor_id;sensor_type;location;lat;lon;timestamp;temperature;humidity
37782;DHT22;23621;50.878;4.584;2022-12-16T00:01:17;5.50;58.90
37782;DHT22;23621;50.878;4.584;2022-12-16T00:04:03;5.50;59.00
37782;DHT22;23621;50.878;4.584;2022-12-16T00:06:31;5.50;59.00
37782;DHT22;23621;50.878;4.584;2022-12-16T00:09:00;5.60;59.10
37782;DHT22;23621;50.878;4.584;2022-12-16T00:11:27;5.60;59.20
37782;DHT22;23621;50.878;4.584;2022-12-16T00:13:54;5.70;59.40
37782;DHT22;23621;50.878;4.584;2022-12-16T00:16:21;5.70;59.40
37782;DHT22;23621;50.878;4.584;2022-12-16T00:18:48;5.70;59.40
37782;DHT22;23621;50.878;4.584;2022-12-16T00:21:18;5.80;59.70
37782;DHT22;23621;50.878;4.584;2022-12-16T00:23:45;5.80;59.70
37782;DHT22;23621;50.878;4.584;2022-12-16T00:26:13;5.90;59.80
37782;DHT22;23621;50.878;4.584;2022-12-16T00:28:40;5.90;59.80
37782;DHT22;23621;50.878;4.584;2022-12-16T00:31:09;5.90;59.80
37782;DHT22;23621;50.878;4.584;2022-12-16T00:33:36;6.00;59.90
37782;DHT22;23621;50.878;4.584;2022-12-16T00:36:03;6.00;59.90
37782;DHT22;23621;50.878;4.584;2022-12-16T00:38:30;6.00;60.00
37782;DHT22;23621;50.878;4.584;2022-12-16T00:40:57;6.10;60.10
37782;DHT22;23621;50.878;4.584;2022-12-16T00:43:24;6.00;60.10
37782;DHT22;23621;50.878;4.584;2022-12-16T00:45:51;6.10;60.20
37782;DHT22;23621;50.878;4.584;2022-12-16T00:48:18;6.10;60.10
37782;DHT22;23621;50.878;4.584;2022-12-16T00:50:50;6.10;60.10
37782;DHT22;23621;50.878;4.584;2022-12-16T00:53:18;6.20;60.30
37782;DHT22;23621;50.878;4.584;2022-12-16T00:55:45;6.20;60.40
37782;DHT22;23621;50.878;4.584;2022-12-16T00:58:12;6.20;60.40
37782;DHT22;23621;50.878;4.584;2022-12-16T01:00:40;6.20;60.40
37782;DHT22;23621;50.878;4.584;2022-12-16T01:03:07;6.30;60.50
37782;DHT22;23621;50.878;4.584;2022-12-16T01:05:37;6.30;60.60
37782;DHT22;23621;50.878;4.584;2022-12-16T01:08:04;6.30;60.60
37782;DHT22;23621;50.878;4.584;2022-12-16T01:10:31;6.30;60.50
37782;DHT22;23621;50.878;4.584;2022-12-16T01:12:58;6.30;60.40
37782;DHT22;23621;50.878;4.584;2022-12-16T01:15:25;6.30;60.40
37782;DHT22;23621;50.878;4.584;2022-12-16T01:17:52;6.40;60.60
37782;DHT22;23621;50.878;4.584;2022-12-16T01:20:21;6.40;60.60
37782;DHT22;23621;50.878;4.584;2022-12-16T01:22:48;6.40;60.70
37782;DHT22;23621;50.878;4.584;2022-12-16T01:25:15;6.40;61.50
37782;DHT22;23621;50.878;4.584;2022-12-16T01:27:43;6.40;60.80
37782;DHT22;23621;50.878;4.584;2022-12-16T01:30:10;6.40;60.90
37782;DHT22;23621;50.878;4.584;2022-12-16T01:32:37;6.40;61.00
37782;DHT22;23621;50.878;4.584;2022-12-16T01:35:04;6.40;61.10
37782;DHT22;23621;50.878;4.584;2022-12-16T01:37:49;6.50;61.20
37782;DHT22;23621;50.878;4.584;2022-12-16T01:40:18;6.50;61.20
37782;DHT22;23621;50.878;4.584;2022-12-16T01:42:46;6.50;61.30
37782;DHT22;23621;50.878;4.584;2022-12-16T01:45:39;6.50;61.40
37782;DHT22;23621;50.878;4.584;2022-12-16T01:48:34;6.50;61.40
37782;DHT22;23621;50.878;4.584;2022-12-16T01:53:47;6.60;61.50
37782;DHT22;23621;50.878;4.584;2022-12-16T01:56:17;6.60;61.40
37782;DHT22;23621;50.878;4.584;2022-12-16T01:58:45;6.60;61.40
37782;DHT22;23621;50.878;4.584;2022-12-16T02:01:13;6.60;61.50
37782;DHT22;23621;50.878;4.584;2022-12-16T02:03:42;6.60;61.50
37782;DHT22;23621;50.878;4.584;2022-12-16T02:06:08;6.60;61.50
37782;DHT22;23621;50.878;4.584;2022-12-16T02:08:35;6.60;61.60
37782;DHT22;23621;50.878;4.584;2022-12-16T02:11:38;6.60;61.80
37782;DHT22;23621;50.878;4.584;2022-12-16T02:17:18;6.60;62.10
37782;DHT22;23621;50.878;4.584;2022-12-16T02:22:50;6.50;62.30
37782;DHT22;23621;50.878;4.584;2022-12-16T02:34:26;6.60;62.50
37782;DHT22;23621;50.878;4.584;2022-12-16T02:37:11;6.70;62.60
37782;DHT22;23621;50.878;4.584;2022-12-16T02:39:43;6.70;62.60
37782;DHT22;23621;50.878;4.584;2022-12-16T02:42:29;6.70;62.60
37782;DHT22;23621;50.878;4.584;2022-12-16T02:47:28;6.80;62.60
37782;DHT22;23621;50.878;4.584;2022-12-16T02:49:55;6.80;62.70
37782;DHT22;23621;50.878;4.584;2022-12-16T02:52:31;6.80;62.70
37782;DHT22;23621;50.878;4.584;2022-12-16T02:55:02;6.90;62.80
37782;DHT22;23621;50.878;4.584;2022-12-16T03:00:40;7.00;62.80
37782;DHT22;23621;50.878;4.584;2022-12-16T03:03:29;7.10;62.80
37782;DHT22;23621;50.878;4.584;2022-12-16T03:06:02;7.10;62.70
37782;DHT22;23621;50.878;4.584;2022-12-16T03:08:33;7.10;62.60
37782;DHT22;23621;50.878;4.584;2022-12-16T03:11:04;7.20;62.60
37782;DHT22;23621;50.878;4.584;2022-12-16T03:13:40;7.20;62.60
37782;DHT22;23621;50.878;4.584;2022-12-16T03:16:11;7.20;62.60
37782;DHT22;23621;50.878;4.584;2022-12-16T03:18:42;7.20;62.60
37782;DHT22;23621;50.878;4.584;2022-12-16T03:21:10;7.20;62.70
37782;DHT22;23621;50.878;4.584;2022-12-16T03:23:52;7.30;62.60
37782;DHT22;23621;50.878;4.584;2022-12-16T03:26:33;7.30;62.60
37782;DHT22;23621;50.878;4.584;2022-12-16T03:29:09;7.30;62.60
37782;DHT22;23621;50.878;4.584;2022-12-16T03:31:55;7.30;62.60
37782;DHT22;23621;50.878;4.584;2022-12-16T03:34:43;7.30;62.70
37782;DHT22;23621;50.878;4.584;2022-12-16T03:37:12;7.30;62.70
37782;DHT22;23621;50.878;4.584;2022-12-16T03:39:46;7.40;62.70
37782;DHT22;23621;50.878;4.584;2022-12-16T03:42:14;7.40;62.90
37782;DHT22;23621;50.878;4.584;2022-12-16T03:44:46;7.30;63.20
37782;DHT22;23621;50.878;4.584;2022-12-16T03:47:13;7.40;63.20
37782;DHT22;23621;50.878;4.584;2022-12-16T03:49:49;7.30;63.20
37782;DHT22;23621;50.878;4.584;2022-12-16T03:52:16;7.40;63.30
37782;DHT22;23621;50.878;4.584;2022-12-16T03:54:43;7.40;63.30
37782;DHT22;23621;50.878;4.584;2022-12-16T03:57:09;7.40;63.60
37782;DHT22;23621;50.878;4.584;2022-12-16T03:59:41;7.40;63.70
37782;DHT22;23621;50.878;4.584;2022-12-16T04:02:08;7.40;63.70
37782;DHT22;23621;50.878;4.584;2022-12-16T04:04:36;7.40;63.70
37782;DHT22;23621;50.878;4.584;2022-12-16T04:07:03;7.40;63.70
37782;DHT22;23621;50.878;4.584;2022-12-16T04:09:51;7.50;63.80
37782;DHT22;23621;50.878;4.584;2022-12-16T04:12:19;7.50;63.70
37782;DHT22;23621;50.878;4.584;2022-12-16T04:15:05;7.50;64.00
37782;DHT22;23621;50.878;4.584;2022-12-16T04:17:51;7.50;63.90
37782;DHT22;23621;50.878;4.584;2022-12-16T04:20:39;7.40;64.40
37782;DHT22;23621;50.878;4.584;2022-12-16T04:23:28;7.40;64.20
37782;DHT22;23621;50.878;4.584;2022-12-16T04:26:15;7.40;65.00
37782;DHT22;23621;50.878;4.584;2022-12-16T04:28:42;7.40;64.40
37782;DHT22;23621;50.878;4.584;2022-12-16T04:31:09;7.40;64.80
37782;DHT22;23621;50.878;4.584;2022-12-16T04:33:37;7.40;64.60
37782;DHT22;23621;50.878;4.584;2022-12-16T04:36:23;7.40;64.80
37782;DHT22;23621;50.878;4.584;2022-12-16T04:39:09;7.40;64.80
37782;DHT22;23621;50.878;4.584;2022-12-16T04:41:54;7.40;64.70
37782;DHT22;23621;50.878;4.584;2022-12-16T04:44:40;7.40;64.90
37782;DHT22;23621;50.878;4.584;2022-12-16T04:47:25;7.40;65.00
37782;DHT22;23621;50.878;4.584;2022-12-16T04:50:10;7.40;65.00
37782;DHT22;23621;50.878;4.584;2022-12-16T04:52:56;7.40;65.10
37782;DHT22;23621;50.878;4.584;2022-12-16T04:55:41;7.40;65.30
37782;DHT22;23621;50.878;4.584;2022-12-16T04:58:29;7.40;65.40
37782;DHT22;23621;50.878;4.584;2022-12-16T05:01:15;7.40;65.40
37782;DHT22;23621;50.878;4.584;2022-12-16T05:04:00;7.40;65.50
37782;DHT22;23621;50.878;4.584;2022-12-16T05:06:45;7.50;65.70
37782;DHT22;23621;50.878;4.584;2022-12-16T05:09:30;7.50;65.70
37782;DHT22;23621;50.878;4.584;2022-12-16T05:12:16;7.50;65.60
37782;DHT22;23621;50.878;4.584;2022-12-16T05:15:01;7.60;65.70
37782;DHT22;23621;50.878;4.584;2022-12-16T05:17:46;7.60;65.80
37782;DHT22;23621;50.878;4.584;2022-12-16T05:20:31;7.60;65.80
37782;DHT22;23621;50.878;4.584;2022-12-16T05:23:17;7.60;65.90
37782;DHT22;23621;50.878;4.584;2022-12-16T05:26:02;7.60;66.10
37782;DHT22;23621;50.878;4.584;2022-12-16T05:28:47;7.60;66.20
37782;DHT22;23621;50.878;4.584;2022-12-16T05:31:33;7.60;66.40
37782;DHT22;23621;50.878;4.584;2022-12-16T05:34:18;7.60;66.30
37782;DHT22;23621;50.878;4.584;2022-12-16T05:37:03;7.60;66.30
37782;DHT22;23621;50.878;4.584;2022-12-16T05:39:49;7.60;66.30
37782;DHT22;23621;50.878;4.584;2022-12-16T05:42:34;7.70;66.40
37782;DHT22;23621;50.878;4.584;2022-12-16T05:45:20;7.70;66.40
37782;DHT22;23621;50.878;4.584;2022-12-16T05:48:06;7.70;66.70
37782;DHT22;23621;50.878;4.584;2022-12-16T05:50:51;7.70;66.70
37782;DHT22;23621;50.878;4.584;2022-12-16T05:53:36;7.70;66.60
37782;DHT22;23621;50.878;4.584;2022-12-16T05:56:21;7.70;66.60
37782;DHT22;23621;50.878;4.584;2022-12-16T05:59:07;7.80;66.70
37782;DHT22;23621;50.878;4.584;2022-12-16T06:01:52;7.80;66.70
37782;DHT22;23621;50.878;4.584;2022-12-16T06:04:38;7.80;66.80
37782;DHT22;23621;50.878;4.584;2022-12-16T06:07:24;7.80;66.90
37782;DHT22;23621;50.878;4.584;2022-12-16T06:10:09;7.80;67.00
37782;DHT22;23621;50.878;4.584;2022-12-16T06:12:55;7.80;67.00
37782;DHT22;23621;50.878;4.584;2022-12-16T06:15:40;7.90;67.30
37782;DHT22;23621;50.878;4.584;2022-12-16T06:18:33;7.90;67.20
37782;DHT22;23621;50.878;4.584;2022-12-16T06:21:19;7.90;67.20
37782;DHT22;23621;50.878;4.584;2022-12-16T06:24:05;7.90;67.10
37782;DHT22;23621;50.878;4.584;2022-12-16T06:26:50;7.90;67.10
37782;DHT22;23621;50.878;4.584;2022-12-16T06:29:36;8.00;67.20
37782;DHT22;23621;50.878;4.584;2022-12-16T06:32:22;8.00;67.20
37782;DHT22;23621;50.878;4.584;2022-12-16T06:35:07;8.00;67.30
37782;DHT22;23621;50.878;4.584;2022-12-16T06:37:53;8.00;67.30
37782;DHT22;23621;50.878;4.584;2022-12-16T06:40:38;8.00;67.30
37782;DHT22;23621;50.878;4.584;2022-12-16T06:43:24;8.00;67.30
37782;DHT22;23621;50.878;4.584;2022-12-16T06:46:09;8.00;67.50
37782;DHT22;23621;50.878;4.584;2022-12-16T06:48:55;8.00;67.50
37782;DHT22;23621;50.878;4.584;2022-12-16T06:51:40;8.00;67.50
37782;DHT22;23621;50.878;4.584;2022-12-16T06:54:25;8.00;67.50
37782;DHT22;23621;50.878;4.584;2022-12-16T06:57:11;8.10;67.60
37782;DHT22;23621;50.878;4.584;2022-12-16T06:59:56;8.10;67.50
37782;DHT22;23621;50.878;4.584;2022-12-16T07:02:42;8.10;67.60
37782;DHT22;23621;50.878;4.584;2022-12-16T07:05:29;8.10;67.60
37782;DHT22;23621;50.878;4.584;2022-12-16T07:08:15;8.10;67.60
37782;DHT22;23621;50.878;4.584;2022-12-16T07:11:00;8.10;67.70
37782;DHT22;23621;50.878;4.584;2022-12-16T07:13:45;8.10;67.70
37782;DHT22;23621;50.878;4.584;2022-12-16T07:16:30;8.10;67.70
37782;DHT22;23621;50.878;4.584;2022-12-16T07:19:16;8.10;67.70
37782;DHT22;23621;50.878;4.584;2022-12-16T07:22:01;8.00;67.70
37782;DHT22;23621;50.878;4.584;2022-12-16T07:24:46;8.00;67.80
37782;DHT22;23621;50.878;4.584;2022-12-16T07:27:32;8.10;67.80
37782;DHT22;23621;50.878;4.584;2022-12-16T07:30:17;8.10;67.80
37782;DHT22;23621;50.878;4.584;2022-12-16T07:33:02;8.10;68.60
37782;DHT22;23621;50.878;4.584;2022-12-16T07:35:48;8.10;67.80
37782;DHT22;23621;50.878;4.584;2022-12-16T07:38:33;8.10;67.80
37782;DHT22;23621;50.878;4.584;2022-12-16T07:41:18;8.10;67.80
37782;DHT22;23621;50.878;4.584;2022-12-16T07:44:04;8.20;67.90
37782;DHT22;23621;50.878;4.584;2022-12-16T07:46:49;8.10;67.70
37782;DHT22;23621;50.878;4.584;2022-12-16T07:49:35;8.20;67.80
37782;DHT22;23621;50.878;4.584;2022-12-16T07:52:21;8.20;67.80
37782;DHT22;23621;50.878;4.584;2022-12-16T07:55:07;8.20;67.90
37782;DHT22;23621;50.878;4.584;2022-12-16T07:57:53;8.20;67.90
37782;DHT22;23621;50.878;4.584;2022-12-16T08:00:38;8.20;67.80
37782;DHT22;23621;50.878;4.584;2022-12-16T08:03:24;8.20;67.80
37782;DHT22;23621;50.878;4.584;2022-12-16T08:06:09;8.20;67.80
37782;DHT22;23621;50.878;4.584;2022-12-16T08:08:55;8.20;67.80
37782;DHT22;23621;50.878;4.584;2022-12-16T08:11:40;8.20;67.80
37782;DHT22;23621;50.878;4.584;2022-12-16T08:14:25;8.20;67.80
37782;DHT22;23621;50.878;4.584;2022-12-16T08:17:11;8.20;67.80
37782;DHT22;23621;50.878;4.584;2022-12-16T08:19:56;8.20;67.80
37782;DHT22;23621;50.878;4.584;2022-12-16T08:22:42;8.20;67.80
37782;DHT22;23621;50.878;4.584;2022-12-16T08:25:28;8.20;67.90
37782;DHT22;23621;50.878;4.584;2022-12-16T08:28:13;8.20;67.90
37782;DHT22;23621;50.878;4.584;2022-12-16T08:30:58;8.20;68.00
37782;DHT22;23621;50.878;4.584;2022-12-16T08:33:44;8.20;67.90
37782;DHT22;23621;50.878;4.584;2022-12-16T08:36:29;8.20;68.00
37782;DHT22;23621;50.878;4.584;2022-12-16T08:39:15;8.20;67.90
37782;DHT22;23621;50.878;4.584;2022-12-16T08:42:00;8.20;67.90
37782;DHT22;23621;50.878;4.584;2022-12-16T08:44:46;8.20;67.90
37782;DHT22;23621;50.878;4.584;2022-12-16T08:47:31;8.20;68.00
37782;DHT22;23621;50.878;4.584;2022-12-16T08:50:17;8.20;68.10
37782;DHT22;23621;50.878;4.584;2022-12-16T08:53:02;8.30;68.10
37782;DHT22;23621;50.878;4.584;2022-12-16T08:55:48;8.30;68.30
37782;DHT22;23621;50.878;4.584;2022-12-16T08:58:34;8.40;68.10
37782;DHT22;23621;50.878;4.584;2022-12-16T09:01:21;8.40;68.00
37782;DHT22;23621;50.878;4.584;2022-12-16T09:04:27;8.40;67.90
37782;DHT22;23621;50.878;4.584;2022-12-16T09:07:12;8.40;67.80
37782;DHT22;23621;50.878;4.584;2022-12-16T09:09:57;8.40;67.80
37782;DHT22;23621;50.878;4.584;2022-12-16T09:12:43;8.50;67.90
37782;DHT22;23621;50.878;4.584;2022-12-16T09:15:28;8.50;67.90
37782;DHT22;23621;50.878;4.584;2022-12-16T09:18:14;8.50;67.80
37782;DHT22;23621;50.878;4.584;2022-12-16T09:20:59;8.50;67.80
37782;DHT22;23621;50.878;4.584;2022-12-16T09:23:45;8.50;67.80
37782;DHT22;23621;50.878;4.584;2022-12-16T09:26:31;8.50;67.70
37782;DHT22;23621;50.878;4.584;2022-12-16T09:29:17;8.50;67.80
37782;DHT22;23621;50.878;4.584;2022-12-16T09:32:09;8.50;67.80
37782;DHT22;23621;50.878;4.584;2022-12-16T09:34:55;8.50;68.10
37782;DHT22;23621;50.878;4.584;2022-12-16T09:37:47;8.50;67.90
37782;DHT22;23621;50.878;4.584;2022-12-16T09:40:37;8.60;67.90
37782;DHT22;23621;50.878;4.584;2022-12-16T09:49:49;8.60;67.80
37782;DHT22;23621;50.878;4.584;2022-12-16T09:52:46;8.60;67.80
37782;DHT22;23621;50.878;4.584;2022-12-16T09:55:39;8.60;67.70
37782;DHT22;23621;50.878;4.584;2022-12-16T09:58:28;8.60;67.60
37782;DHT22;23621;50.878;4.584;2022-12-16T10:01:15;8.60;67.60
37782;DHT22;23621;50.878;4.584;2022-12-16T10:04:01;8.60;67.70
37782;DHT22;23621;50.878;4.584;2022-12-16T10:06:50;8.60;67.70
37782;DHT22;23621;50.878;4.584;2022-12-16T10:27:48;8.80;67.10
37782;DHT22;23621;50.878;4.584;2022-12-16T10:30:36;8.80;66.90
37782;DHT22;23621;50.878;4.584;2022-12-16T10:33:26;8.80;66.90
37782;DHT22;23621;50.878;4.584;2022-12-16T10:36:21;8.80;66.80
37782;DHT22;23621;50.878;4.584;2022-12-16T10:39:28;8.90;66.90
37782;DHT22;23621;50.878;4.584;2022-12-16T10:42:21;8.90;66.80
37782;DHT22;23621;50.878;4.584;2022-12-16T10:45:29;8.90;66.70
37782;DHT22;23621;50.878;4.584;2022-12-16T10:48:26;9.00;66.70
37782;DHT22;23621;50.878;4.584;2022-12-16T10:51:27;9.00;66.50
37782;DHT22;23621;50.878;4.584;2022-12-16T11:00:46;9.00;66.30
37782;DHT22;23621;50.878;4.584;2022-12-16T11:03:33;9.00;66.20
37782;DHT22;23621;50.878;4.584;2022-12-16T11:09:39;9.00;66.20
37782;DHT22;23621;50.878;4.584;2022-12-16T11:12:29;9.00;66.10
37782;DHT22;23621;50.878;4.584;2022-12-16T11:15:29;9.00;65.90
37782;DHT22;23621;50.878;4.584;2022-12-16T11:18:21;9.00;65.90
37782;DHT22;23621;50.878;4.584;2022-12-16T11:21:14;9.00;65.90
37782;DHT22;23621;50.878;4.584;2022-12-16T11:24:15;9.00;65.70
37782;DHT22;23621;50.878;4.584;2022-12-16T11:27:14;9.00;65.70
37782;DHT22;23621;50.878;4.584;2022-12-16T11:30:15;9.00;65.70
37782;DHT22;23621;50.878;4.584;2022-12-16T11:33:24;9.00;65.60
37782;DHT22;23621;50.878;4.584;2022-12-16T11:36:31;8.90;65.70
37782;DHT22;23621;50.878;4.584;2022-12-16T11:39:20;8.90;65.80
37782;DHT22;23621;50.878;4.584;2022-12-16T11:42:23;8.80;65.70
37782;DHT22;23621;50.878;4.584;2022-12-16T11:45:18;8.80;65.70
37782;DHT22;23621;50.878;4.584;2022-12-16T11:48:32;8.80;65.80
37782;DHT22;23621;50.878;4.584;2022-12-16T11:51:21;8.70;65.80
37782;DHT22;23621;50.878;4.584;2022-12-16T11:54:25;8.70;66.10
37782;DHT22;23621;50.878;4.584;2022-12-16T11:57:27;8.70;66.10
37782;DHT22;23621;50.878;4.584;2022-12-16T12:00:16;8.70;66.10
37782;DHT22;23621;50.878;4.584;2022-12-16T12:03:11;8.70;65.90
37782;DHT22;23621;50.878;4.584;2022-12-16T12:12:22;8.50;65.70
37782;DHT22;23621;50.878;4.584;2022-12-16T12:22:08;8.50;66.00
37782;DHT22;23621;50.878;4.584;2022-12-16T12:25:19;8.50;65.90
37782;DHT22;23621;50.878;4.584;2022-12-16T12:34:53;8.50;65.90
37782;DHT22;23621;50.878;4.584;2022-12-16T12:37:35;8.40;66.00
37782;DHT22;23621;50.878;4.584;2022-12-16T12:40:44;8.40;66.20
37782;DHT22;23621;50.878;4.584;2022-12-16T12:46:48;8.40;65.90
37782;DHT22;23621;50.878;4.584;2022-12-16T12:53:02;8.40;65.90
37782;DHT22;23621;50.878;4.584;2022-12-16T12:56:03;8.40;65.90
37782;DHT22;23621;50.878;4.584;2022-12-16T12:58:52;8.40;66.00
37782;DHT22;23621;50.878;4.584;2022-12-16T13:01:40;8.40;66.10
37782;DHT22;23621;50.878;4.584;2022-12-16T13:04:28;8.40;66.00
37782;DHT22;23621;50.878;4.584;2022-12-16T13:07:14;8.30;66.00
37782;DHT22;23621;50.878;4.584;2022-12-16T13:10:31;8.30;66.20
37782;DHT22;23621;50.878;4.584;2022-12-16T13:16:08;8.40;66.20
37782;DHT22;23621;50.878;4.584;2022-12-16T13:19:39;8.40;66.70
37782;DHT22;23621;50.878;4.584;2022-12-16T13:22:35;8.40;65.90
37782;DHT22;23621;50.878;4.584;2022-12-16T13:25:49;8.40;65.80
37782;DHT22;23621;50.878;4.584;2022-12-16T13:28:37;8.40;66.00
37782;DHT22;23621;50.878;4.584;2022-12-16T13:31:25;8.40;66.10
37782;DHT22;23621;50.878;4.584;2022-12-16T13:37:02;8.50;65.70
37782;DHT22;23621;50.878;4.584;2022-12-16T13:40:15;8.60;65.50
37782;DHT22;23621;50.878;4.584;2022-12-16T13:43:02;8.60;65.50
37782;DHT22;23621;50.878;4.584;2022-12-16T13:48:44;8.70;65.10
37782;DHT22;23621;50.878;4.584;2022-12-16T13:54:35;8.80;64.80
37782;DHT22;23621;50.878;4.584;2022-12-16T13:57:23;8.80;64.30
37782;DHT22;23621;50.878;4.584;2022-12-16T14:00:19;8.80;64.50
37782;DHT22;23621;50.878;4.584;2022-12-16T14:03:18;8.80;64.50
37782;DHT22;23621;50.878;4.584;2022-12-16T14:06:15;8.80;64.50
37782;DHT22;23621;50.878;4.584;2022-12-16T14:09:03;8.80;65.30
37782;DHT22;23621;50.878;4.584;2022-12-16T14:11:56;8.80;64.30
37782;DHT22;23621;50.878;4.584;2022-12-16T14:14:47;8.80;64.30
37782;DHT22;23621;50.878;4.584;2022-12-16T14:17:44;8.80;64.20
37782;DHT22;23621;50.878;4.584;2022-12-16T14:20:48;8.80;64.30
37782;DHT22;23621;50.878;4.584;2022-12-16T14:23:52;8.70;64.00
37782;DHT22;23621;50.878;4.584;2022-12-16T14:26:41;8.80;64.20
37782;DHT22;23621;50.878;4.584;2022-12-16T14:29:31;8.80;64.10
37782;DHT22;23621;50.878;4.584;2022-12-16T14:35:16;8.90;64.00
37782;DHT22;23621;50.878;4.584;2022-12-16T14:41:12;9.00;63.70
37782;DHT22;23621;50.878;4.584;2022-12-16T14:43:58;9.00;63.60
37782;DHT22;23621;50.878;4.584;2022-12-16T14:46:51;9.00;63.70
37782;DHT22;23621;50.878;4.584;2022-12-16T14:49:52;9.00;63.50
37782;DHT22;23621;50.878;4.584;2022-12-16T14:52:39;9.00;63.40
37782;DHT22;23621;50.878;4.584;2022-12-16T14:55:26;9.00;63.40
37782;DHT22;23621;50.878;4.584;2022-12-16T14:58:18;9.00;63.30
37782;DHT22;23621;50.878;4.584;2022-12-16T15:01:11;9.10;63.30
37782;DHT22;23621;50.878;4.584;2022-12-16T15:03:59;9.10;63.20
37782;DHT22;23621;50.878;4.584;2022-12-16T15:06:49;9.00;63.10
37782;DHT22;23621;50.878;4.584;2022-12-16T15:09:47;9.00;63.10
37782;DHT22;23621;50.878;4.584;2022-12-16T15:12:39;9.00;63.10
37782;DHT22;23621;50.878;4.584;2022-12-16T15:18:19;9.00;63.10
37782;DHT22;23621;50.878;4.584;2022-12-16T15:21:08;8.90;62.90
37782;DHT22;23621;50.878;4.584;2022-12-16T15:23:55;8.90;62.90
37782;DHT22;23621;50.878;4.584;2022-12-16T15:26:40;8.90;62.80
37782;DHT22;23621;50.878;4.584;2022-12-16T15:29:37;8.80;62.80
37782;DHT22;23621;50.878;4.584;2022-12-16T15:35:22;8.60;62.90
37782;DHT22;23621;50.878;4.584;2022-12-16T15:38:26;8.50;63.00
37782;DHT22;23621;50.878;4.584;2022-12-16T15:41:33;8.50;62.90
37782;DHT22;23621;50.878;4.584;2022-12-16T15:44:21;8.40;62.70
37782;DHT22;23621;50.878;4.584;2022-12-16T15:47:33;8.30;62.70
37782;DHT22;23621;50.878;4.584;2022-12-16T15:50:22;8.30;62.70
37782;DHT22;23621;50.878;4.584;2022-12-16T15:56:23;8.10;62.70
37782;DHT22;23621;50.878;4.584;2022-12-16T15:59:25;8.10;62.70
37782;DHT22;23621;50.878;4.584;2022-12-16T16:02:23;8.00;62.70
37782;DHT22;23621;50.878;4.584;2022-12-16T16:05:21;7.90;62.50
37782;DHT22;23621;50.878;4.584;2022-12-16T16:08:10;7.90;62.60
37782;DHT22;23621;50.878;4.584;2022-12-16T16:10:56;7.90;62.60
37782;DHT22;23621;50.878;4.584;2022-12-16T16:13:41;7.80;62.60
37782;DHT22;23621;50.878;4.584;2022-12-16T16:16:36;7.80;62.50
37782;DHT22;23621;50.878;4.584;2022-12-16T16:19:24;7.70;62.50
37782;DHT22;23621;50.878;4.584;2022-12-16T16:22:12;7.70;62.30
37782;DHT22;23621;50.878;4.584;2022-12-16T16:24:57;7.70;62.50
37782;DHT22;23621;50.878;4.584;2022-12-16T16:27:43;7.60;62.30
37782;DHT22;23621;50.878;4.584;2022-12-16T16:30:29;7.60;63.00
37782;DHT22;23621;50.878;4.584;2022-12-16T16:33:15;7.50;62.10
37782;DHT22;23621;50.878;4.584;2022-12-16T16:36:11;7.50;62.10
37782;DHT22;23621;50.878;4.584;2022-12-16T16:38:57;7.40;62.10
37782;DHT22;23621;50.878;4.584;2022-12-16T16:41:42;7.40;62.10
37782;DHT22;23621;50.878;4.584;2022-12-16T16:44:28;7.40;62.10
37782;DHT22;23621;50.878;4.584;2022-12-16T16:47:15;7.40;62.10
37782;DHT22;23621;50.878;4.584;2022-12-16T16:50:01;7.30;62.00
37782;DHT22;23621;50.878;4.584;2022-12-16T16:52:47;7.20;62.80
37782;DHT22;23621;50.878;4.584;2022-12-16T16:55:32;7.20;62.10
37782;DHT22;23621;50.878;4.584;2022-12-16T16:58:24;7.20;62.30
37782;DHT22;23621;50.878;4.584;2022-12-16T17:01:13;7.20;62.40
37782;DHT22;23621;50.878;4.584;2022-12-16T17:03:59;7.20;62.30
37782;DHT22;23621;50.878;4.584;2022-12-16T17:06:45;7.20;62.30
37782;DHT22;23621;50.878;4.584;2022-12-16T17:09:30;7.20;62.10
37782;DHT22;23621;50.878;4.584;2022-12-16T17:12:20;7.20;62.10
37782;DHT22;23621;50.878;4.584;2022-12-16T17:15:16;7.20;62.00
37782;DHT22;23621;50.878;4.584;2022-12-16T17:18:03;7.10;61.80
37782;DHT22;23621;50.878;4.584;2022-12-16T17:20:49;7.10;61.80
37782;DHT22;23621;50.878;4.584;2022-12-16T17:23:34;7.10;61.80
37782;DHT22;23621;50.878;4.584;2022-12-16T17:26:27;7.10;61.70
37782;DHT22;23621;50.878;4.584;2022-12-16T17:29:23;7.10;61.70
37782;DHT22;23621;50.878;4.584;2022-12-16T17:32:10;7.10;61.60
37782;DHT22;23621;50.878;4.584;2022-12-16T17:34:56;7.00;61.40
37782;DHT22;23621;50.878;4.584;2022-12-16T17:37:42;7.00;61.50
37782;DHT22;23621;50.878;4.584;2022-12-16T17:40:27;6.90;61.40
37782;DHT22;23621;50.878;4.584;2022-12-16T17:43:13;6.90;61.40
37782;DHT22;23621;50.878;4.584;2022-12-16T17:46:04;6.90;61.50
37782;DHT22;23621;50.878;4.584;2022-12-16T17:48:55;6.90;61.40
37782;DHT22;23621;50.878;4.584;2022-12-16T17:51:41;6.80;61.20
37782;DHT22;23621;50.878;4.584;2022-12-16T17:54:27;6.80;61.10
37782;DHT22;23621;50.878;4.584;2022-12-16T17:57:12;6.80;61.10
37782;DHT22;23621;50.878;4.584;2022-12-16T17:59:59;6.70;61.00
37782;DHT22;23621;50.878;4.584;2022-12-16T18:02:44;6.70;60.90
37782;DHT22;23621;50.878;4.584;2022-12-16T18:05:30;6.70;60.90
37782;DHT22;23621;50.878;4.584;2022-12-16T18:08:15;6.70;60.90
37782;DHT22;23621;50.878;4.584;2022-12-16T18:11:01;6.60;60.80
37782;DHT22;23621;50.878;4.584;2022-12-16T18:13:46;6.60;60.80
37782;DHT22;23621;50.878;4.584;2022-12-16T18:16:31;6.50;60.70
37782;DHT22;23621;50.878;4.584;2022-12-16T18:19:17;6.50;60.60
37782;DHT22;23621;50.878;4.584;2022-12-16T18:22:03;6.50;60.60
37782;DHT22;23621;50.878;4.584;2022-12-16T18:24:48;6.50;60.70
37782;DHT22;23621;50.878;4.584;2022-12-16T18:27:35;6.40;60.60
37782;DHT22;23621;50.878;4.584;2022-12-16T18:30:21;6.40;60.70
37782;DHT22;23621;50.878;4.584;2022-12-16T18:33:06;6.40;60.60
37782;DHT22;23621;50.878;4.584;2022-12-16T18:35:52;6.40;60.60
37782;DHT22;23621;50.878;4.584;2022-12-16T18:38:37;6.40;60.60
37782;DHT22;23621;50.878;4.584;2022-12-16T18:41:23;6.30;60.40
37782;DHT22;23621;50.878;4.584;2022-12-16T18:44:11;6.30;60.40
37782;DHT22;23621;50.878;4.584;2022-12-16T18:46:57;6.30;60.40
37782;DHT22;23621;50.878;4.584;2022-12-16T18:49:43;6.30;60.40
37782;DHT22;23621;50.878;4.584;2022-12-16T18:52:30;6.30;60.40
37782;DHT22;23621;50.878;4.584;2022-12-16T18:55:17;6.30;60.40
37782;DHT22;23621;50.878;4.584;2022-12-16T18:58:03;6.30;60.30
37782;DHT22;23621;50.878;4.584;2022-12-16T19:01:10;6.20;60.20
37782;DHT22;23621;50.878;4.584;2022-12-16T19:03:56;6.20;60.10
37782;DHT22;23621;50.878;4.584;2022-12-16T19:06:41;6.20;60.30
37782;DHT22;23621;50.878;4.584;2022-12-16T19:09:27;6.10;60.40
37782;DHT22;23621;50.878;4.584;2022-12-16T19:12:12;6.10;60.70
37782;DHT22;23621;50.878;4.584;2022-12-16T19:14:58;6.10;60.70
37782;DHT22;23621;50.878;4.584;2022-12-16T19:17:43;6.10;60.50
37782;DHT22;23621;50.878;4.584;2022-12-16T19:20:29;6.10;61.00
37782;DHT22;23621;50.878;4.584;2022-12-16T19:23:14;6.10;60.10
37782;DHT22;23621;50.878;4.584;2022-12-16T19:26:01;6.10;60.10
37782;DHT22;23621;50.878;4.584;2022-12-16T19:28:46;6.00;59.90